ULLI Airport Information

Runway Information
Runway 10R Length 12402 ft width 197 ft Elevation 66 ft Threshold N/A Heading 106
Runway 28L Length 12402 ft Width 197 ft Elevation 79 ft Threshold N/A Heading 286
Runway 10L Length 11146 ft width 197 ft Elevation 59 ft Threshold N/A Heading 106
Runway 28R Length 11146 ft Width 197 ft Elevation 66 ft Threshold N/A Heading 286
Airport Frequencies
Type APP Name PETERBURG Frequency 129.8 MHZ
Type ATIS Name ATIS Frequency 127.3 MHZ
Type GND Name TAXIING Frequency 121.7 MHZ
Type RDR Name KRUG Frequency 120.3 MHZ
Type TWR Name TWR Frequency 118.1 MHZ
Airport Navaids
Type NDB Name Pulkovo Frequency 342 KHZ
Type NDB Name Pulkovo Frequency 525 KHZ
Type NDB Name Pulkovo Frequency 277 KHZ
Type NDB Name Pulkovo Frequency 303 KHZ
Type VOR-DME Name Sankt-Peterburg Frequency 113400 KHZ
Airport Weather Information & NOTAM
ADDS - METARS form results

(0435 UTC 10 August 2022)
Data provider http://aviationweather.gov/metar/data/
 
METAR text: ULLI 100430Z 00000MPS CAVOK 16/14 Q1027 R28L/090060 NOSIG
Conditions at: ULLI (ST PETERSBURG , RU) observed 0430 UTC 10 August 2022
Temperature: 16.0°C (61°F)
Dewpoint: 14.0°C (57°F) [RH = 88%]
Pressure (altimeter): 30.32 inches Hg (1027.0 mb)
Winds: calm
Visibility: 6 or more miles (10+ km)
Ceiling: ceiling and visibility are OK
Clouds: unknown
Weather: no significant weather observed at this time

METAR text: ULLI 100400Z 00000MPS 9999 MIFG NSC 16/13 Q1026 R10R/090060 NOSIG
Conditions at: ULLI (ST PETERSBURG , RU) observed 0400 UTC 10 August 2022
Temperature: 16.0°C (61°F)
Dewpoint: 13.0°C (55°F) [RH = 82%]
Pressure (altimeter): 30.30 inches Hg (1026.0 mb)
Winds: calm
Visibility: 6 or more miles (10+ km)
Ceiling: at least 12,000 feet AGL
Clouds: sky clear below 12,000 feet AGL
Weather: MIFG  (shallow fog)

Forecast for: ULLI (ST PETERSBURG , RU)
Text: TAF ULLI 100154Z 1003/1103 VRB01MPS 6000 NSC
Forecast period: 0300 UTC 10 August 2022 to 0300 UTC 11 August 2022
Forecast type: FROM: standard forecast or significant change
Winds: variable direction winds at 2 MPH (2 knots; 1.0 m/s)
Visibility: 4 miles (6 km)
Ceiling: unknown
Clouds: missing
Weather: no significant weather forecast for this period
Text: TEMPO 1006/1015 26004G09MPS
Forecast period: 0600 to 1500 UTC 10 August 2022
Forecast type: TEMPORARY: The following changes expected for less than half the time period
Winds: from the W (260 degrees) at 9 MPH (8 knots; 4.1 m/s)
gusting to 20 MPH (17 knots; 8.7 m/s)
Visibility: missing
Ceiling: unknown
Clouds: missing
Weather: no significant weather forecast for this period